sensor_id;sensor_type;location;lat;lon;timestamp;P1;durP1;ratioP1;P2;durP2;ratioP2
73331;SDS011;61560;33.718;73.040;2022-10-19T00:00:11;24.00;;;10.50;;
73331;SDS011;61560;33.718;73.040;2022-10-19T00:02:38;24.95;;;11.35;;
73331;SDS011;61560;33.718;73.040;2022-10-19T00:05:04;28.15;;;11.95;;
73331;SDS011;61560;33.718;73.040;2022-10-19T00:07:32;22.50;;;11.02;;
73331;SDS011;61560;33.718;73.040;2022-10-19T00:09:59;23.55;;;11.82;;
73331;SDS011;61560;33.718;73.040;2022-10-19T00:12:25;21.77;;;11.02;;
73331;SDS011;61560;33.718;73.040;2022-10-19T00:14:52;21.08;;;10.88;;
73331;SDS011;61560;33.718;73.040;2022-10-19T00:17:18;25.33;;;11.77;;
73331;SDS011;61560;33.718;73.040;2022-10-19T00:19:45;26.17;;;11.82;;
73331;SDS011;61560;33.718;73.040;2022-10-19T00:22:11;23.42;;;10.85;;
73331;SDS011;61560;33.718;73.040;2022-10-19T00:24:38;22.70;;;10.88;;
73331;SDS011;61560;33.718;73.040;2022-10-19T00:27:05;26.42;;;11.98;;
73331;SDS011;61560;33.718;73.040;2022-10-19T00:29:31;27.80;;;12.43;;
73331;SDS011;61560;33.718;73.040;2022-10-19T00:32:01;37.53;;;14.85;;
73331;SDS011;61560;33.718;73.040;2022-10-19T00:34:27;37.47;;;14.75;;
73331;SDS011;61560;33.718;73.040;2022-10-19T00:36:54;30.42;;;14.63;;
73331;SDS011;61560;33.718;73.040;2022-10-19T00:39:20;35.38;;;15.13;;
73331;SDS011;61560;33.718;73.040;2022-10-19T00:41:50;32.60;;;14.80;;
73331;SDS011;61560;33.718;73.040;2022-10-19T00:46:45;33.45;;;12.93;;
73331;SDS011;61560;33.718;73.040;2022-10-19T00:49:19;25.90;;;11.57;;
73331;SDS011;61560;33.718;73.040;2022-10-19T00:51:50;23.73;;;10.93;;
73331;SDS011;61560;33.718;73.040;2022-10-19T00:54:23;24.65;;;12.38;;
73331;SDS011;61560;33.718;73.040;2022-10-19T00:56:51;29.73;;;12.65;;
73331;SDS011;61560;33.718;73.040;2022-10-19T00:59:20;31.95;;;13.00;;
73331;SDS011;61560;33.718;73.040;2022-10-19T01:01:51;34.13;;;15.02;;
73331;SDS011;61560;33.718;73.040;2022-10-19T01:04:19;34.08;;;15.40;;
73331;SDS011;61560;33.718;73.040;2022-10-19T01:06:47;35.55;;;16.60;;
73331;SDS011;61560;33.718;73.040;2022-10-19T01:09:14;27.35;;;13.95;;
73331;SDS011;61560;33.718;73.040;2022-10-19T01:17:27;35.60;;;15.93;;
73331;SDS011;61560;33.718;73.040;2022-10-19T01:33:57;33.83;;;14.68;;
73331;SDS011;61560;33.718;73.040;2022-10-19T01:36:56;31.80;;;14.05;;
73331;SDS011;61560;33.718;73.040;2022-10-19T01:42:37;31.48;;;14.05;;
73331;SDS011;61560;33.718;73.040;2022-10-19T01:48:03;31.05;;;12.27;;
73331;SDS011;61560;33.718;73.040;2022-10-19T01:53:16;25.35;;;12.25;;
73331;SDS011;61560;33.718;73.040;2022-10-19T01:55:43;28.02;;;12.43;;
73331;SDS011;61560;33.718;73.040;2022-10-19T01:58:12;30.33;;;13.40;;
73331;SDS011;61560;33.718;73.040;2022-10-19T02:00:44;34.03;;;13.57;;
73331;SDS011;61560;33.718;73.040;2022-10-19T02:03:14;24.33;;;12.63;;
73331;SDS011;61560;33.718;73.040;2022-10-19T02:05:42;28.20;;;13.13;;
73331;SDS011;61560;33.718;73.040;2022-10-19T02:08:16;27.73;;;13.13;;
73331;SDS011;61560;33.718;73.040;2022-10-19T02:10:57;33.28;;;14.50;;
73331;SDS011;61560;33.718;73.040;2022-10-19T02:13:24;25.60;;;13.15;;
73331;SDS011;61560;33.718;73.040;2022-10-19T02:15:53;28.27;;;12.35;;
73331;SDS011;61560;33.718;73.040;2022-10-19T02:18:24;31.35;;;13.85;;
73331;SDS011;61560;33.718;73.040;2022-10-19T02:21:01;31.98;;;13.07;;
73331;SDS011;61560;33.718;73.040;2022-10-19T02:23:29;32.88;;;14.82;;
73331;SDS011;61560;33.718;73.040;2022-10-19T02:25:57;36.58;;;15.18;;
73331;SDS011;61560;33.718;73.040;2022-10-19T02:28:25;37.90;;;14.63;;
73331;SDS011;61560;33.718;73.040;2022-10-19T02:30:55;33.83;;;14.77;;
73331;SDS011;61560;33.718;73.040;2022-10-19T02:33:22;36.40;;;14.80;;
73331;SDS011;61560;33.718;73.040;2022-10-19T02:35:49;39.58;;;16.20;;
73331;SDS011;61560;33.718;73.040;2022-10-19T02:38:18;31.00;;;14.13;;
73331;SDS011;61560;33.718;73.040;2022-10-19T02:40:49;28.15;;;14.93;;
73331;SDS011;61560;33.718;73.040;2022-10-19T02:43:39;40.47;;;18.27;;
73331;SDS011;61560;33.718;73.040;2022-10-19T02:46:12;47.20;;;19.60;;
73331;SDS011;61560;33.718;73.040;2022-10-19T02:48:51;42.23;;;19.23;;
73331;SDS011;61560;33.718;73.040;2022-10-19T02:51:25;41.95;;;17.83;;
73331;SDS011;61560;33.718;73.040;2022-10-19T02:54:19;38.95;;;16.45;;
73331;SDS011;61560;33.718;73.040;2022-10-19T02:56:46;33.17;;;16.30;;
73331;SDS011;61560;33.718;73.040;2022-10-19T02:59:13;35.28;;;15.80;;
73331;SDS011;61560;33.718;73.040;2022-10-19T03:01:39;41.30;;;16.83;;
73331;SDS011;61560;33.718;73.040;2022-10-19T03:04:06;30.27;;;15.77;;
73331;SDS011;61560;33.718;73.040;2022-10-19T03:06:32;31.35;;;15.93;;
73331;SDS011;61560;33.718;73.040;2022-10-19T03:08:59;41.17;;;16.33;;
73331;SDS011;61560;33.718;73.040;2022-10-19T03:11:25;34.33;;;16.83;;
73331;SDS011;61560;33.718;73.040;2022-10-19T03:13:52;32.97;;;16.10;;
73331;SDS011;61560;33.718;73.040;2022-10-19T03:16:18;36.85;;;16.15;;
73331;SDS011;61560;33.718;73.040;2022-10-19T03:18:46;31.80;;;14.82;;
73331;SDS011;61560;33.718;73.040;2022-10-19T03:21:13;34.28;;;17.00;;
73331;SDS011;61560;33.718;73.040;2022-10-19T03:23:42;39.47;;;17.83;;
73331;SDS011;61560;33.718;73.040;2022-10-19T03:26:09;36.58;;;18.77;;
73331;SDS011;61560;33.718;73.040;2022-10-19T03:28:39;41.13;;;18.05;;
73331;SDS011;61560;33.718;73.040;2022-10-19T03:31:07;37.63;;;17.90;;
73331;SDS011;61560;33.718;73.040;2022-10-19T03:33:35;37.25;;;18.25;;
73331;SDS011;61560;33.718;73.040;2022-10-19T03:36:21;41.80;;;18.27;;
73331;SDS011;61560;33.718;73.040;2022-10-19T03:38:50;45.67;;;18.33;;
73331;SDS011;61560;33.718;73.040;2022-10-19T03:41:18;33.28;;;18.20;;
73331;SDS011;61560;33.718;73.040;2022-10-19T03:43:46;38.30;;;18.15;;
73331;SDS011;61560;33.718;73.040;2022-10-19T03:46:12;30.85;;;17.65;;
73331;SDS011;61560;33.718;73.040;2022-10-19T03:48:41;35.05;;;18.45;;
73331;SDS011;61560;33.718;73.040;2022-10-19T03:51:17;42.50;;;18.48;;
73331;SDS011;61560;33.718;73.040;2022-10-19T03:53:47;40.85;;;17.55;;
73331;SDS011;61560;33.718;73.040;2022-10-19T03:56:18;32.05;;;17.50;;
73331;SDS011;61560;33.718;73.040;2022-10-19T03:58:47;39.80;;;18.75;;
73331;SDS011;61560;33.718;73.040;2022-10-19T04:01:16;39.53;;;19.63;;
73331;SDS011;61560;33.718;73.040;2022-10-19T04:03:45;32.30;;;18.50;;
73331;SDS011;61560;33.718;73.040;2022-10-19T04:06:12;36.00;;;19.15;;
73331;SDS011;61560;33.718;73.040;2022-10-19T04:08:41;37.92;;;19.25;;
73331;SDS011;61560;33.718;73.040;2022-10-19T04:11:11;37.22;;;19.85;;
73331;SDS011;61560;33.718;73.040;2022-10-19T04:13:39;32.42;;;18.52;;
73331;SDS011;61560;33.718;73.040;2022-10-19T04:16:06;38.10;;;19.27;;
73331;SDS011;61560;33.718;73.040;2022-10-19T04:18:34;45.30;;;20.40;;
73331;SDS011;61560;33.718;73.040;2022-10-19T04:21:03;41.47;;;20.00;;
73331;SDS011;61560;33.718;73.040;2022-10-19T04:23:33;33.53;;;19.95;;
73331;SDS011;61560;33.718;73.040;2022-10-19T04:26:02;38.00;;;21.13;;
73331;SDS011;61560;33.718;73.040;2022-10-19T04:28:31;38.77;;;21.90;;
73331;SDS011;61560;33.718;73.040;2022-10-19T04:31:03;43.53;;;21.10;;
73331;SDS011;61560;33.718;73.040;2022-10-19T04:33:32;42.65;;;22.33;;
73331;SDS011;61560;33.718;73.040;2022-10-19T04:36:00;35.65;;;22.10;;
73331;SDS011;61560;33.718;73.040;2022-10-19T04:38:28;40.15;;;23.40;;
73331;SDS011;61560;33.718;73.040;2022-10-19T04:40:55;53.22;;;24.98;;
73331;SDS011;61560;33.718;73.040;2022-10-19T04:43:30;42.95;;;23.98;;
73331;SDS011;61560;33.718;73.040;2022-10-19T04:46:00;40.78;;;23.30;;
73331;SDS011;61560;33.718;73.040;2022-10-19T04:48:31;44.83;;;23.33;;
73331;SDS011;61560;33.718;73.040;2022-10-19T04:50:59;43.92;;;24.73;;
73331;SDS011;61560;33.718;73.040;2022-10-19T04:53:26;40.50;;;24.33;;
73331;SDS011;61560;33.718;73.040;2022-10-19T04:55:53;41.97;;;21.42;;
73331;SDS011;61560;33.718;73.040;2022-10-19T04:58:20;36.35;;;22.92;;
73331;SDS011;61560;33.718;73.040;2022-10-19T05:00:46;43.38;;;23.73;;
73331;SDS011;61560;33.718;73.040;2022-10-19T05:03:13;47.65;;;25.40;;
73331;SDS011;61560;33.718;73.040;2022-10-19T05:05:39;54.03;;;25.17;;
73331;SDS011;61560;33.718;73.040;2022-10-19T05:08:08;43.60;;;25.10;;
73331;SDS011;61560;33.718;73.040;2022-10-19T05:10:35;45.08;;;23.90;;
73331;SDS011;61560;33.718;73.040;2022-10-19T05:13:27;34.83;;;22.10;;
73331;SDS011;61560;33.718;73.040;2022-10-19T05:15:54;34.50;;;21.75;;
73331;SDS011;61560;33.718;73.040;2022-10-19T05:18:21;33.97;;;21.30;;
73331;SDS011;61560;33.718;73.040;2022-10-19T05:20:48;34.55;;;19.30;;
73331;SDS011;61560;33.718;73.040;2022-10-19T05:23:15;39.05;;;19.85;;
73331;SDS011;61560;33.718;73.040;2022-10-19T05:25:42;38.05;;;18.67;;
73331;SDS011;61560;33.718;73.040;2022-10-19T05:28:11;36.28;;;17.08;;
73331;SDS011;61560;33.718;73.040;2022-10-19T05:30:38;35.95;;;17.90;;
73331;SDS011;61560;33.718;73.040;2022-10-19T05:33:04;32.60;;;15.70;;
73331;SDS011;61560;33.718;73.040;2022-10-19T05:35:31;26.63;;;15.40;;
73331;SDS011;61560;33.718;73.040;2022-10-19T05:37:58;31.88;;;14.20;;
73331;SDS011;61560;33.718;73.040;2022-10-19T05:40:24;21.98;;;13.07;;
73331;SDS011;61560;33.718;73.040;2022-10-19T05:42:54;24.27;;;14.55;;
73331;SDS011;61560;33.718;73.040;2022-10-19T05:45:21;25.33;;;13.73;;
73331;SDS011;61560;33.718;73.040;2022-10-19T05:47:48;25.73;;;13.00;;
73331;SDS011;61560;33.718;73.040;2022-10-19T05:50:15;29.23;;;14.85;;
73331;SDS011;61560;33.718;73.040;2022-10-19T05:52:41;31.90;;;15.52;;
73331;SDS011;61560;33.718;73.040;2022-10-19T05:55:10;28.63;;;13.32;;
73331;SDS011;61560;33.718;73.040;2022-10-19T05:57:36;24.15;;;13.35;;
73331;SDS011;61560;33.718;73.040;2022-10-19T06:00:04;25.08;;;14.35;;
73331;SDS011;61560;33.718;73.040;2022-10-19T06:02:37;25.80;;;13.43;;
73331;SDS011;61560;33.718;73.040;2022-10-19T06:05:04;25.10;;;13.90;;
73331;SDS011;61560;33.718;73.040;2022-10-19T06:07:31;30.42;;;14.10;;
73331;SDS011;61560;33.718;73.040;2022-10-19T06:09:58;24.33;;;14.02;;
73331;SDS011;61560;33.718;73.040;2022-10-19T06:12:25;25.70;;;13.48;;
73331;SDS011;61560;33.718;73.040;2022-10-19T06:14:52;26.05;;;14.10;;
73331;SDS011;61560;33.718;73.040;2022-10-19T06:17:19;23.83;;;12.73;;
73331;SDS011;61560;33.718;73.040;2022-10-19T06:19:45;20.27;;;11.70;;
73331;SDS011;61560;33.718;73.040;2022-10-19T06:22:12;24.35;;;12.52;;
73331;SDS011;61560;33.718;73.040;2022-10-19T06:24:41;20.88;;;11.93;;
73331;SDS011;61560;33.718;73.040;2022-10-19T06:27:08;24.38;;;12.60;;
73331;SDS011;61560;33.718;73.040;2022-10-19T06:29:34;23.30;;;11.85;;
73331;SDS011;61560;33.718;73.040;2022-10-19T06:32:01;21.95;;;11.52;;
73331;SDS011;61560;33.718;73.040;2022-10-19T06:34:28;23.48;;;12.98;;
73331;SDS011;61560;33.718;73.040;2022-10-19T06:36:54;27.85;;;12.35;;
73331;SDS011;61560;33.718;73.040;2022-10-19T06:39:21;23.35;;;12.07;;
73331;SDS011;61560;33.718;73.040;2022-10-19T06:41:47;24.95;;;13.35;;
73331;SDS011;61560;33.718;73.040;2022-10-19T06:44:18;22.92;;;12.98;;
73331;SDS011;61560;33.718;73.040;2022-10-19T06:46:45;28.15;;;12.80;;
73331;SDS011;61560;33.718;73.040;2022-10-19T06:49:12;24.05;;;13.20;;
73331;SDS011;61560;33.718;73.040;2022-10-19T06:51:39;27.52;;;14.13;;
73331;SDS011;61560;33.718;73.040;2022-10-19T06:54:06;33.60;;;13.85;;
73331;SDS011;61560;33.718;73.040;2022-10-19T06:56:32;28.15;;;14.02;;
73331;SDS011;61560;33.718;73.040;2022-10-19T06:58:59;30.67;;;13.75;;
73331;SDS011;61560;33.718;73.040;2022-10-19T07:01:26;30.58;;;14.07;;
73331;SDS011;61560;33.718;73.040;2022-10-19T07:03:53;29.77;;;14.95;;
73331;SDS011;61560;33.718;73.040;2022-10-19T07:06:21;29.13;;;15.07;;
73331;SDS011;61560;33.718;73.040;2022-10-19T07:08:48;32.15;;;14.77;;
73331;SDS011;61560;33.718;73.040;2022-10-19T07:11:16;27.63;;;15.43;;
73331;SDS011;61560;33.718;73.040;2022-10-19T07:14:09;25.58;;;15.38;;
73331;SDS011;61560;33.718;73.040;2022-10-19T07:16:35;35.47;;;17.83;;
73331;SDS011;61560;33.718;73.040;2022-10-19T07:19:01;35.88;;;16.95;;
73331;SDS011;61560;33.718;73.040;2022-10-19T07:21:29;33.65;;;16.27;;
73331;SDS011;61560;33.718;73.040;2022-10-19T07:23:56;35.85;;;16.50;;
73331;SDS011;61560;33.718;73.040;2022-10-19T07:26:24;39.00;;;16.92;;
73331;SDS011;61560;33.718;73.040;2022-10-19T07:28:54;35.72;;;16.92;;
73331;SDS011;61560;33.718;73.040;2022-10-19T07:31:22;35.53;;;16.27;;
73331;SDS011;61560;33.718;73.040;2022-10-19T07:33:53;42.00;;;17.30;;
73331;SDS011;61560;33.718;73.040;2022-10-19T07:38:48;39.42;;;17.20;;
73331;SDS011;61560;33.718;73.040;2022-10-19T07:41:15;37.15;;;17.98;;
73331;SDS011;61560;33.718;73.040;2022-10-19T07:43:44;33.75;;;15.88;;
73331;SDS011;61560;33.718;73.040;2022-10-19T07:46:15;41.70;;;18.88;;
73331;SDS011;61560;33.718;73.040;2022-10-19T07:48:43;41.85;;;18.80;;
73331;SDS011;61560;33.718;73.040;2022-10-19T07:51:13;32.35;;;17.05;;
73331;SDS011;61560;33.718;73.040;2022-10-19T07:53:40;33.63;;;17.50;;
73331;SDS011;61560;33.718;73.040;2022-10-19T07:56:10;29.02;;;16.80;;
73331;SDS011;61560;33.718;73.040;2022-10-19T07:58:38;36.55;;;17.20;;
73331;SDS011;61560;33.718;73.040;2022-10-19T08:01:07;32.50;;;16.48;;
73331;SDS011;61560;33.718;73.040;2022-10-19T08:03:41;35.05;;;18.20;;
73331;SDS011;61560;33.718;73.040;2022-10-19T08:06:10;33.05;;;18.27;;
73331;SDS011;61560;33.718;73.040;2022-10-19T08:08:39;40.90;;;18.17;;
73331;SDS011;61560;33.718;73.040;2022-10-19T08:13:33;40.65;;;19.15;;
73331;SDS011;61560;33.718;73.040;2022-10-19T08:16:00;48.97;;;21.00;;
73331;SDS011;61560;33.718;73.040;2022-10-19T08:18:28;47.60;;;22.27;;
73331;SDS011;61560;33.718;73.040;2022-10-19T08:20:55;41.38;;;19.05;;
73331;SDS011;61560;33.718;73.040;2022-10-19T08:23:23;37.95;;;19.60;;
73331;SDS011;61560;33.718;73.040;2022-10-19T08:25:56;35.85;;;18.45;;
73331;SDS011;61560;33.718;73.040;2022-10-19T08:28:24;34.38;;;18.27;;
73331;SDS011;61560;33.718;73.040;2022-10-19T08:30:51;42.83;;;19.75;;
73331;SDS011;61560;33.718;73.040;2022-10-19T08:33:24;40.42;;;19.02;;
73331;SDS011;61560;33.718;73.040;2022-10-19T08:35:51;33.10;;;18.02;;
73331;SDS011;61560;33.718;73.040;2022-10-19T08:38:21;37.97;;;18.42;;
73331;SDS011;61560;33.718;73.040;2022-10-19T08:40:47;38.53;;;19.33;;
73331;SDS011;61560;33.718;73.040;2022-10-19T08:43:23;37.17;;;18.98;;
73331;SDS011;61560;33.718;73.040;2022-10-19T08:46:10;34.90;;;18.25;;
73331;SDS011;61560;33.718;73.040;2022-10-19T08:48:50;38.03;;;18.35;;
73331;SDS011;61560;33.718;73.040;2022-10-19T08:51:17;43.33;;;18.52;;
73331;SDS011;61560;33.718;73.040;2022-10-19T09:01:44;34.08;;;18.15;;
73331;SDS011;61560;33.718;73.040;2022-10-19T09:04:27;38.70;;;19.20;;
73331;SDS011;61560;33.718;73.040;2022-10-19T09:09:59;41.42;;;19.13;;
73331;SDS011;61560;33.718;73.040;2022-10-19T09:16:02;34.15;;;17.60;;
73331;SDS011;61560;33.718;73.040;2022-10-19T09:18:31;39.95;;;17.88;;
73331;SDS011;61560;33.718;73.040;2022-10-19T09:23:39;41.15;;;18.40;;
73331;SDS011;61560;33.718;73.040;2022-10-19T09:26:12;32.78;;;18.38;;
73331;SDS011;61560;33.718;73.040;2022-10-19T09:31:38;38.25;;;18.20;;
73331;SDS011;61560;33.718;73.040;2022-10-19T09:37:08;34.35;;;17.65;;
73331;SDS011;61560;33.718;73.040;2022-10-19T09:39:37;40.35;;;18.83;;
73331;SDS011;61560;33.718;73.040;2022-10-19T09:42:09;31.63;;;18.15;;
73331;SDS011;61560;33.718;73.040;2022-10-19T09:45:00;37.08;;;18.30;;
73331;SDS011;61560;33.718;73.040;2022-10-19T09:47:47;36.35;;;18.23;;
73331;SDS011;61560;33.718;73.040;2022-10-19T09:52:46;38.42;;;18.95;;
73331;SDS011;61560;33.718;73.040;2022-10-19T09:57:58;44.45;;;20.17;;
73331;SDS011;61560;33.718;73.040;2022-10-19T10:00:32;40.28;;;18.48;;
73331;SDS011;61560;33.718;73.040;2022-10-19T10:05:58;37.87;;;19.03;;
73331;SDS011;61560;33.718;73.040;2022-10-19T10:08:30;34.85;;;18.60;;
73331;SDS011;61560;33.718;73.040;2022-10-19T10:11:29;44.70;;;20.25;;
73331;SDS011;61560;33.718;73.040;2022-10-19T10:13:57;45.50;;;19.75;;
73331;SDS011;61560;33.718;73.040;2022-10-19T10:16:29;45.33;;;20.13;;
73331;SDS011;61560;33.718;73.040;2022-10-19T10:18:58;45.25;;;20.05;;
73331;SDS011;61560;33.718;73.040;2022-10-19T10:21:29;44.95;;;19.95;;
73331;SDS011;61560;33.718;73.040;2022-10-19T10:26:39;34.55;;;18.80;;
73331;SDS011;61560;33.718;73.040;2022-10-19T10:29:30;34.85;;;19.17;;
73331;SDS011;61560;33.718;73.040;2022-10-19T10:32:05;32.92;;;18.48;;
73331;SDS011;61560;33.718;73.040;2022-10-19T10:34:42;35.30;;;18.42;;
73331;SDS011;61560;33.718;73.040;2022-10-19T10:37:29;31.98;;;17.70;;
73331;SDS011;61560;33.718;73.040;2022-10-19T10:40:15;32.40;;;18.65;;
73331;SDS011;61560;33.718;73.040;2022-10-19T10:42:53;41.38;;;18.80;;
73331;SDS011;61560;33.718;73.040;2022-10-19T10:48:14;41.13;;;17.70;;
73331;SDS011;61560;33.718;73.040;2022-10-19T10:50:43;31.98;;;17.38;;
73331;SDS011;61560;33.718;73.040;2022-10-19T10:53:30;36.17;;;18.13;;
73331;SDS011;61560;33.718;73.040;2022-10-19T10:56:00;41.28;;;17.80;;
73331;SDS011;61560;33.718;73.040;2022-10-19T11:00:57;37.53;;;17.90;;
73331;SDS011;61560;33.718;73.040;2022-10-19T11:03:27;34.78;;;17.77;;
73331;SDS011;61560;33.718;73.040;2022-10-19T11:05:55;37.15;;;17.20;;
73331;SDS011;61560;33.718;73.040;2022-10-19T11:08:31;38.80;;;17.67;;
73331;SDS011;61560;33.718;73.040;2022-10-19T11:11:43;39.15;;;17.35;;
73331;SDS011;61560;33.718;73.040;2022-10-19T11:16:55;35.85;;;17.20;;
73331;SDS011;61560;33.718;73.040;2022-10-19T11:19:27;30.67;;;15.95;;
73331;SDS011;61560;33.718;73.040;2022-10-19T11:22:05;36.15;;;16.23;;
73331;SDS011;61560;33.718;73.040;2022-10-19T11:33:46;37.00;;;17.42;;
73331;SDS011;61560;33.718;73.040;2022-10-19T11:36:41;42.45;;;18.30;;
73331;SDS011;61560;33.718;73.040;2022-10-19T11:51:12;33.05;;;16.95;;
73331;SDS011;61560;33.718;73.040;2022-10-19T11:56:33;37.33;;;17.95;;
73331;SDS011;61560;33.718;73.040;2022-10-19T11:59:32;35.45;;;17.92;;
73331;SDS011;61560;33.718;73.040;2022-10-19T12:05:03;43.35;;;18.67;;
73331;SDS011;61560;33.718;73.040;2022-10-19T12:13:37;37.17;;;16.83;;
73331;SDS011;61560;33.718;73.040;2022-10-19T12:16:07;39.38;;;17.65;;
73331;SDS011;61560;33.718;73.040;2022-10-19T12:18:46;42.03;;;17.15;;
73331;SDS011;61560;33.718;73.040;2022-10-19T12:21:31;35.97;;;16.35;;
73331;SDS011;61560;33.718;73.040;2022-10-19T12:24:04;38.40;;;18.17;;
73331;SDS011;61560;33.718;73.040;2022-10-19T12:26:39;31.85;;;17.95;;
73331;SDS011;61560;33.718;73.040;2022-10-19T12:29:18;34.53;;;17.08;;
73331;SDS011;61560;33.718;73.040;2022-10-19T12:31:49;36.58;;;16.52;;
73331;SDS011;61560;33.718;73.040;2022-10-19T12:53:25;35.72;;;16.00;;
73331;SDS011;61560;33.718;73.040;2022-10-19T13:01:17;35.13;;;16.50;;
73331;SDS011;61560;33.718;73.040;2022-10-19T13:03:45;31.88;;;16.45;;
73331;SDS011;61560;33.718;73.040;2022-10-19T13:06:28;33.85;;;14.93;;
73331;SDS011;61560;33.718;73.040;2022-10-19T13:08:59;35.38;;;15.63;;
73331;SDS011;61560;33.718;73.040;2022-10-19T13:11:29;34.58;;;15.95;;
73331;SDS011;61560;33.718;73.040;2022-10-19T13:16:37;32.97;;;15.05;;
73331;SDS011;61560;33.718;73.040;2022-10-19T13:40:35;33.00;;;16.23;;
73331;SDS011;61560;33.718;73.040;2022-10-19T13:43:15;27.38;;;14.85;;
73331;SDS011;61560;33.718;73.040;2022-10-19T13:46:13;28.85;;;14.63;;
73331;SDS011;61560;33.718;73.040;2022-10-19T13:54:45;34.90;;;15.65;;
73331;SDS011;61560;33.718;73.040;2022-10-19T13:57:42;31.52;;;14.98;;
73331;SDS011;61560;33.718;73.040;2022-10-19T14:00:34;35.58;;;15.77;;
73331;SDS011;61560;33.718;73.040;2022-10-19T14:03:20;31.98;;;14.48;;
73331;SDS011;61560;33.718;73.040;2022-10-19T14:08:51;32.35;;;15.48;;
73331;SDS011;61560;33.718;73.040;2022-10-19T14:11:39;34.30;;;16.35;;
73331;SDS011;61560;33.718;73.040;2022-10-19T14:19:21;31.08;;;15.80;;
73331;SDS011;61560;33.718;73.040;2022-10-19T14:21:56;39.28;;;16.88;;
73331;SDS011;61560;33.718;73.040;2022-10-19T14:26:54;30.08;;;14.93;;
73331;SDS011;61560;33.718;73.040;2022-10-19T14:29:21;32.85;;;15.77;;
73331;SDS011;61560;33.718;73.040;2022-10-19T14:31:48;29.63;;;14.25;;
73331;SDS011;61560;33.718;73.040;2022-10-19T14:34:17;30.70;;;15.10;;
73331;SDS011;61560;33.718;73.040;2022-10-19T14:36:46;34.63;;;14.45;;
73331;SDS011;61560;33.718;73.040;2022-10-19T14:39:23;34.97;;;15.13;;
73331;SDS011;61560;33.718;73.040;2022-10-19T14:41:56;30.92;;;13.35;;
73331;SDS011;61560;33.718;73.040;2022-10-19T14:44:41;27.48;;;14.40;;
73331;SDS011;61560;33.718;73.040;2022-10-19T14:47:22;32.20;;;14.65;;
73331;SDS011;61560;33.718;73.040;2022-10-19T14:49:55;30.73;;;15.85;;
73331;SDS011;61560;33.718;73.040;2022-10-19T14:52:24;32.45;;;15.13;;
73331;SDS011;61560;33.718;73.040;2022-10-19T14:54:56;37.13;;;14.98;;
73331;SDS011;61560;33.718;73.040;2022-10-19T14:57:27;29.10;;;14.55;;
73331;SDS011;61560;33.718;73.040;2022-10-19T14:59:58;36.30;;;14.32;;
73331;SDS011;61560;33.718;73.040;2022-10-19T15:02:41;27.45;;;13.75;;
73331;SDS011;61560;33.718;73.040;2022-10-19T15:05:19;32.38;;;14.85;;
73331;SDS011;61560;33.718;73.040;2022-10-19T15:07:48;34.55;;;15.13;;
73331;SDS011;61560;33.718;73.040;2022-10-19T15:12:55;27.23;;;14.27;;
73331;SDS011;61560;33.718;73.040;2022-10-19T15:15:27;41.15;;;15.55;;
73331;SDS011;61560;33.718;73.040;2022-10-19T15:22:56;33.80;;;16.25;;
73331;SDS011;61560;33.718;73.040;2022-10-19T15:28:17;31.83;;;15.70;;
73331;SDS011;61560;33.718;73.040;2022-10-19T15:30:56;28.10;;;13.90;;
73331;SDS011;61560;33.718;73.040;2022-10-19T15:36:10;30.10;;;13.50;;
73331;SDS011;61560;33.718;73.040;2022-10-19T15:38:46;28.15;;;13.43;;
73331;SDS011;61560;33.718;73.040;2022-10-19T15:41:28;29.30;;;13.40;;
73331;SDS011;61560;33.718;73.040;2022-10-19T15:43:58;29.02;;;14.18;;
73331;SDS011;61560;33.718;73.040;2022-10-19T15:46:28;23.63;;;12.57;;
73331;SDS011;61560;33.718;73.040;2022-10-19T15:51:49;36.97;;;13.85;;
73331;SDS011;61560;33.718;73.040;2022-10-19T15:54:16;22.88;;;12.68;;
73331;SDS011;61560;33.718;73.040;2022-10-19T15:56:45;29.80;;;13.38;;
73331;SDS011;61560;33.718;73.040;2022-10-19T15:59:16;31.80;;;13.77;;
73331;SDS011;61560;33.718;73.040;2022-10-19T16:01:45;35.65;;;14.30;;
73331;SDS011;61560;33.718;73.040;2022-10-19T16:04:16;25.40;;;13.48;;
73331;SDS011;61560;33.718;73.040;2022-10-19T16:06:43;37.40;;;14.05;;
73331;SDS011;61560;33.718;73.040;2022-10-19T16:09:18;29.83;;;14.05;;
73331;SDS011;61560;33.718;73.040;2022-10-19T16:11:46;30.92;;;15.10;;
73331;SDS011;61560;33.718;73.040;2022-10-19T16:14:13;29.58;;;15.23;;
73331;SDS011;61560;33.718;73.040;2022-10-19T16:16:40;33.15;;;16.90;;
73331;SDS011;61560;33.718;73.040;2022-10-19T16:19:08;34.90;;;17.17;;
73331;SDS011;61560;33.718;73.040;2022-10-19T16:21:37;35.90;;;16.63;;
73331;SDS011;61560;33.718;73.040;2022-10-19T16:24:04;34.90;;;16.65;;
73331;SDS011;61560;33.718;73.040;2022-10-19T16:26:31;32.80;;;15.57;;
73331;SDS011;61560;33.718;73.040;2022-10-19T16:28:58;29.58;;;16.83;;
73331;SDS011;61560;33.718;73.040;2022-10-19T16:31:26;32.00;;;14.77;;
73331;SDS011;61560;33.718;73.040;2022-10-19T16:33:53;31.45;;;15.65;;
73331;SDS011;61560;33.718;73.040;2022-10-19T16:36:20;32.75;;;14.55;;
73331;SDS011;61560;33.718;73.040;2022-10-19T16:38:46;33.65;;;15.65;;
73331;SDS011;61560;33.718;73.040;2022-10-19T16:41:14;37.47;;;15.80;;
73331;SDS011;61560;33.718;73.040;2022-10-19T16:43:41;31.52;;;14.90;;
73331;SDS011;61560;33.718;73.040;2022-10-19T16:46:09;31.83;;;16.38;;
73331;SDS011;61560;33.718;73.040;2022-10-19T16:48:36;31.98;;;14.60;;
73331;SDS011;61560;33.718;73.040;2022-10-19T16:53:33;34.67;;;15.30;;
73331;SDS011;61560;33.718;73.040;2022-10-19T16:56:11;31.83;;;14.23;;
73331;SDS011;61560;33.718;73.040;2022-10-19T16:58:38;26.02;;;13.95;;
73331;SDS011;61560;33.718;73.040;2022-10-19T17:01:06;28.58;;;14.10;;
73331;SDS011;61560;33.718;73.040;2022-10-19T17:03:36;25.17;;;12.88;;
73331;SDS011;61560;33.718;73.040;2022-10-19T17:06:03;31.38;;;13.38;;
73331;SDS011;61560;33.718;73.040;2022-10-19T17:08:31;26.33;;;13.43;;
73331;SDS011;61560;33.718;73.040;2022-10-19T17:14:05;22.63;;;11.70;;
73331;SDS011;61560;33.718;73.040;2022-10-19T17:16:34;22.27;;;11.48;;
73331;SDS011;61560;33.718;73.040;2022-10-19T17:19:02;25.60;;;12.30;;
73331;SDS011;61560;33.718;73.040;2022-10-19T17:21:30;19.58;;;11.45;;
73331;SDS011;61560;33.718;73.040;2022-10-19T17:23:59;31.80;;;12.57;;
73331;SDS011;61560;33.718;73.040;2022-10-19T17:26:28;26.92;;;12.60;;
73331;SDS011;61560;33.718;73.040;2022-10-19T17:29:00;24.05;;;11.15;;
73331;SDS011;61560;33.718;73.040;2022-10-19T17:31:27;20.02;;;10.13;;
73331;SDS011;61560;33.718;73.040;2022-10-19T17:33:59;21.10;;;11.55;;
73331;SDS011;61560;33.718;73.040;2022-10-19T17:36:27;21.45;;;11.27;;
73331;SDS011;61560;33.718;73.040;2022-10-19T17:38:57;22.42;;;11.55;;
73331;SDS011;61560;33.718;73.040;2022-10-19T17:41:25;26.13;;;11.85;;
73331;SDS011;61560;33.718;73.040;2022-10-19T17:43:52;24.15;;;12.02;;
73331;SDS011;61560;33.718;73.040;2022-10-19T17:46:21;23.60;;;10.82;;